createdAt,value
2022-09-11T00:01:15.593Z,19.89
2022-09-11T00:03:46.665Z,20.09
2022-09-11T00:06:23.728Z,20.29
2022-09-11T00:09:01.045Z,20.47
2022-09-11T00:11:30.759Z,20.62
2022-09-11T00:13:57.665Z,20.44
2022-09-11T00:16:36.544Z,20.27
2022-09-11T00:19:17.733Z,19.98
2022-09-11T00:21:45.631Z,19.62
2022-09-11T00:24:12.580Z,19.46
2022-09-11T00:26:40.836Z,19.72
2022-09-11T00:29:08.175Z,19.60
2022-09-11T00:31:35.189Z,19.66
2022-09-11T00:34:01.968Z,19.71
2022-09-11T00:36:31.601Z,19.65
2022-09-11T00:38:59.170Z,19.82
2022-09-11T00:41:46.283Z,20.03
2022-09-11T00:44:17.889Z,20.09
2022-09-11T00:46:55.624Z,20.24
2022-09-11T00:49:28.154Z,20.31
2022-09-11T00:51:59.907Z,20.42
2022-09-11T00:54:31.193Z,20.49
2022-09-11T00:57:01.323Z,20.42
2022-09-11T00:59:29.433Z,20.54
2022-09-11T01:01:56.099Z,20.52
2022-09-11T01:04:23.405Z,20.32
2022-09-11T01:06:56.521Z,20.41
2022-09-11T01:09:25.894Z,20.29
2022-09-11T01:12:30.268Z,20.36
2022-09-11T01:15:09.456Z,20.30
2022-09-11T01:17:50.915Z,20.23
2022-09-11T01:20:32.029Z,20.22
2022-09-11T01:23:13.716Z,20.14
2022-09-11T01:26:06.863Z,20.14
2022-09-11T01:28:40.096Z,19.99
2022-09-11T01:31:10.756Z,19.81
2022-09-11T01:33:51.906Z,19.84
2022-09-11T01:36:44.408Z,19.68
2022-09-11T01:39:12.444Z,19.69
2022-09-11T01:41:46.420Z,19.69
2022-09-11T01:44:26.559Z,19.75
2022-09-11T01:46:53.713Z,19.85
2022-09-11T01:49:23.467Z,19.99
2022-09-11T01:51:57.637Z,20.06
2022-09-11T01:54:31.999Z,19.98
2022-09-11T01:57:04.469Z,20.08
2022-09-11T01:59:40.600Z,20.05
2022-09-11T02:02:11.457Z,19.97
2022-09-11T02:05:16.023Z,20.05
2022-09-11T02:07:46.866Z,20.08
2022-09-11T02:10:20.100Z,20.09
2022-09-11T02:12:56.506Z,20.09
2022-09-11T02:15:26.065Z,20.04
2022-09-11T02:18:05.982Z,20.07
2022-09-11T02:20:34.402Z,19.96
2022-09-11T02:23:02.276Z,19.91
2022-09-11T02:25:29.029Z,19.89
2022-09-11T02:27:56.779Z,19.78
2022-09-11T02:30:23.560Z,19.66
2022-09-11T02:32:50.270Z,19.54
2022-09-11T02:35:16.999Z,19.48
2022-09-11T02:37:54.147Z,19.20
2022-09-11T02:40:21.249Z,19.14
2022-09-11T02:43:17.453Z,19.03
2022-09-11T02:46:09.477Z,18.91
2022-09-11T02:49:07.864Z,18.91
2022-09-11T02:51:43.848Z,19.21
2022-09-11T02:54:13.637Z,19.15
2022-09-11T02:57:16.685Z,19.22
2022-09-11T02:59:48.018Z,19.19
2022-09-11T03:02:15.665Z,19.31
2022-09-11T03:04:42.372Z,19.39
2022-09-11T03:07:09.253Z,19.42
2022-09-11T03:09:37.549Z,19.33
2022-09-11T03:12:10.470Z,19.16
2022-09-11T03:14:38.301Z,19.06
2022-09-11T03:17:06.140Z,19.04
2022-09-11T03:19:34.451Z,19.01
2022-09-11T03:22:02.961Z,18.96
2022-09-11T03:24:30.504Z,18.95
2022-09-11T03:26:57.409Z,19.11
2022-09-11T03:29:24.771Z,19.12
2022-09-11T03:31:52.213Z,19.15
2022-09-11T03:34:19.892Z,19.34
2022-09-11T03:36:48.225Z,19.29
2022-09-11T03:39:15.227Z,19.36
2022-09-11T03:41:41.941Z,19.37
2022-09-11T03:44:08.685Z,19.22
2022-09-11T03:46:35.410Z,19.14
2022-09-11T03:49:02.452Z,18.97
2022-09-11T03:51:31.268Z,18.82
2022-09-11T03:54:01.281Z,18.96
2022-09-11T03:56:29.899Z,18.77
2022-09-11T03:58:57.345Z,18.75
2022-09-11T04:01:25.121Z,18.76
2022-09-11T04:03:53.292Z,18.69
2022-09-11T04:06:42.583Z,19.07
2022-09-11T04:09:09.589Z,18.84
2022-09-11T04:11:39.041Z,18.93
2022-09-11T04:14:22.547Z,18.95
2022-09-11T04:16:50.313Z,18.75
2022-09-11T04:19:18.869Z,18.64
2022-09-11T04:21:45.612Z,18.66
2022-09-11T04:24:12.772Z,18.65
2022-09-11T04:26:39.670Z,18.45
2022-09-11T04:29:13.004Z,18.36
2022-09-11T04:31:41.364Z,18.29
2022-09-11T04:34:09.834Z,17.99
2022-09-11T04:36:37.508Z,18.11
2022-09-11T04:39:05.287Z,18.17
2022-09-11T04:41:32.424Z,18.14
2022-09-11T04:44:05.168Z,17.93
2022-09-11T04:46:37.194Z,17.83
2022-09-11T04:49:08.258Z,17.97
2022-09-11T04:51:36.599Z,18.03
2022-09-11T04:54:04.248Z,17.98
2022-09-11T04:56:38.045Z,18.11
2022-09-11T04:59:16.244Z,18.30
2022-09-11T05:01:50.370Z,18.36
2022-09-11T05:04:21.753Z,18.38
2022-09-11T05:06:50.155Z,18.17
2022-09-11T05:09:18.594Z,18.04
2022-09-11T05:11:47.183Z,18.18
2022-09-11T05:14:15.277Z,18.20
2022-09-11T05:16:44.995Z,18.12
2022-09-11T05:19:12.750Z,18.22
2022-09-11T05:21:39.957Z,18.31
2022-09-11T05:24:08.154Z,18.22
2022-09-11T05:26:37.246Z,18.21
2022-09-11T05:29:09.141Z,18.18
2022-09-11T05:31:41.735Z,18.03
2022-09-11T05:34:09.018Z,18.03
2022-09-11T05:36:37.064Z,18.16
2022-09-11T05:39:04.493Z,18.35
2022-09-11T05:41:33.379Z,18.21
2022-09-11T05:44:00.250Z,18.08
2022-09-11T05:46:27.203Z,18.14
2022-09-11T05:48:59.226Z,17.95
2022-09-11T05:51:27.374Z,18.22
2022-09-11T05:53:55.430Z,18.07
2022-09-11T05:56:23.996Z,18.20
2022-09-11T05:58:54.050Z,18.21
2022-09-11T06:01:29.846Z,18.09
2022-09-11T06:04:10.241Z,17.99
2022-09-11T06:06:38.471Z,17.97
2022-09-11T06:09:08.460Z,18.08
2022-09-11T06:11:35.323Z,18.05
2022-09-11T06:14:02.809Z,17.93
2022-09-11T06:16:31.647Z,17.50
2022-09-11T06:19:05.758Z,17.74
2022-09-11T06:21:32.577Z,17.81
2022-09-11T06:24:06.198Z,17.93
2022-09-11T06:26:35.592Z,18.07
2022-09-11T06:29:03.153Z,17.94
2022-09-11T06:31:31.062Z,18.14
2022-09-11T06:33:57.795Z,18.02
2022-09-11T06:36:31.511Z,18.07
2022-09-11T06:39:00.870Z,18.18
2022-09-11T06:41:28.733Z,18.27
2022-09-11T06:44:02.594Z,18.28
2022-09-11T06:46:30.460Z,18.26
2022-09-11T06:48:58.991Z,18.44
2022-09-11T06:51:28.254Z,18.54
2022-09-11T06:53:58.093Z,18.45
2022-09-11T06:56:28.676Z,18.31
2022-09-11T06:58:56.201Z,18.26
2022-09-11T07:01:25.440Z,18.36
2022-09-11T07:03:59.556Z,18.22
2022-09-11T07:06:27.709Z,18.37
2022-09-11T07:09:01.016Z,18.35
2022-09-11T07:11:34.559Z,18.49
2022-09-11T07:14:05.750Z,18.67
2022-09-11T07:16:36.808Z,18.59
2022-09-11T07:19:09.292Z,18.54
2022-09-11T07:21:37.249Z,18.67
2022-09-11T07:24:05.267Z,18.67
2022-09-11T07:26:42.220Z,18.85
2022-09-11T07:29:20.770Z,18.94
2022-09-11T07:31:47.833Z,19.08
2022-09-11T07:34:15.873Z,19.32
2022-09-11T07:36:43.308Z,19.16
2022-09-11T07:39:10.388Z,19.18
2022-09-11T07:41:46.772Z,19.54
2022-09-11T07:44:19.652Z,19.75
2022-09-11T07:46:46.992Z,19.22
2022-09-11T07:49:14.457Z,18.99
2022-09-11T07:51:43.928Z,19.28
2022-09-11T07:54:13.412Z,19.20
2022-09-11T07:56:44.370Z,19.34
2022-09-11T07:59:11.833Z,19.47
2022-09-11T08:01:43.100Z,19.60
2022-09-11T08:04:12.328Z,19.40
2022-09-11T08:06:40.329Z,19.30
2022-09-11T08:09:15.103Z,19.53
2022-09-11T08:11:48.912Z,20.11
2022-09-11T08:14:18.176Z,19.74
2022-09-11T08:16:48.560Z,20.04
2022-09-11T08:19:18.579Z,20.04
2022-09-11T08:21:49.895Z,19.92
2022-09-11T08:24:20.297Z,19.81
2022-09-11T08:26:50.662Z,19.84
2022-09-11T08:29:18.997Z,19.41
2022-09-11T08:31:47.246Z,19.67
2022-09-11T08:34:15.669Z,19.99
2022-09-11T08:36:42.741Z,19.65
2022-09-11T08:39:10.367Z,19.90
2022-09-11T08:41:53.821Z,20.39
2022-09-11T08:44:38.985Z,20.38
2022-09-11T08:47:24.422Z,20.37
2022-09-11T08:50:02.060Z,20.89
2022-09-11T08:52:32.577Z,20.65
2022-09-11T08:55:03.135Z,20.63
2022-09-11T08:57:49.817Z,20.29
2022-09-11T09:01:23.845Z,21.10
2022-09-11T09:04:21.573Z,21.51
2022-09-11T09:07:23.711Z,21.61
2022-09-11T09:13:29.827Z,22.15
2022-09-11T09:16:22.746Z,21.90
2022-09-11T09:18:53.417Z,21.75
2022-09-11T09:22:02.093Z,21.26
2022-09-11T09:24:36.872Z,21.35
2022-09-11T09:27:35.837Z,21.22
2022-09-11T09:30:22.534Z,20.62
2022-09-11T09:33:25.359Z,20.49
2022-09-11T09:36:51.897Z,20.64
2022-09-11T09:39:19.785Z,20.55
2022-09-11T09:41:52.578Z,21.42
2022-09-11T09:44:25.510Z,21.76
2022-09-11T09:46:53.418Z,22.04
2022-09-11T09:49:25.325Z,21.90
2022-09-11T09:51:54.903Z,21.18
2022-09-11T09:54:26.724Z,21.20
2022-09-11T09:57:06.202Z,21.60
2022-09-11T09:59:41.564Z,21.96
2022-09-11T10:02:08.536Z,22.32
2022-09-11T10:04:36.067Z,21.09
2022-09-11T10:07:11.573Z,21.29
2022-09-11T10:09:46.887Z,21.62
2022-09-11T10:12:20.612Z,22.42
2022-09-11T10:14:58.674Z,22.16
2022-09-11T10:17:29.460Z,22.70
2022-09-11T10:20:12.285Z,22.93
2022-09-11T10:22:39.336Z,22.06
2022-09-11T10:25:16.892Z,22.01
2022-09-11T10:28:10.059Z,22.52
2022-09-11T10:30:39.988Z,23.05
2022-09-11T10:33:26.431Z,23.17
2022-09-11T10:35:58.293Z,22.79
2022-09-11T10:38:32.402Z,22.87
2022-09-11T10:41:08.477Z,23.03
2022-09-11T10:44:00.671Z,22.97
2022-09-11T10:46:41.334Z,22.91
2022-09-11T10:49:17.226Z,22.80
2022-09-11T10:51:59.331Z,22.84
2022-09-11T10:54:54.416Z,23.37
2022-09-11T10:57:28.080Z,23.56
2022-09-11T11:00:13.061Z,23.02
2022-09-11T11:02:51.449Z,23.32
2022-09-11T11:05:31.422Z,22.76
2022-09-11T11:08:12.149Z,22.91
2022-09-11T11:10:56.302Z,23.34
2022-09-11T11:13:47.534Z,23.19
2022-09-11T11:16:23.216Z,23.11
2022-09-11T11:19:29.662Z,23.57
2022-09-11T11:22:18.461Z,23.79
2022-09-11T11:25:20.145Z,23.62
2022-09-11T11:28:11.880Z,23.62
2022-09-11T11:30:44.894Z,23.49
2022-09-11T11:33:33.673Z,23.62
2022-09-11T11:36:05.324Z,23.57
2022-09-11T11:39:12.895Z,23.68
2022-09-11T11:41:44.628Z,23.67
2022-09-11T11:44:15.939Z,23.73
2022-09-11T11:46:49.519Z,23.56
2022-09-11T11:49:20.987Z,23.38
2022-09-11T11:52:00.495Z,23.58
2022-09-11T11:54:42.731Z,23.68
2022-09-11T11:57:12.222Z,23.56
2022-09-11T11:59:54.587Z,23.60
2022-09-11T12:02:25.445Z,23.70
2022-09-11T12:05:03.584Z,23.92
2022-09-11T12:07:34.118Z,24.11
2022-09-11T12:10:02.954Z,24.14
2022-09-11T12:12:33.950Z,24.15
2022-09-11T12:15:06.510Z,24.07
2022-09-11T12:17:34.300Z,23.99
2022-09-11T12:20:12.528Z,23.68
2022-09-11T12:22:50.175Z,24.03
2022-09-11T12:25:19.818Z,23.61
2022-09-11T12:27:47.554Z,23.53
2022-09-11T12:30:17.487Z,23.73
2022-09-11T12:32:48.833Z,23.47
2022-09-11T12:35:26.301Z,23.91
2022-09-11T12:38:09.262Z,23.55
2022-09-11T12:40:57.352Z,23.99
2022-09-11T12:43:36.366Z,23.73
2022-09-11T12:46:10.471Z,23.51
2022-09-11T12:48:56.271Z,23.72
2022-09-11T12:51:38.154Z,23.68
2022-09-11T12:54:16.342Z,24.04
2022-09-11T12:57:02.311Z,24.12
2022-09-11T12:59:33.452Z,23.91
2022-09-11T13:02:01.105Z,24.10
2022-09-11T13:04:31.095Z,24.27
2022-09-11T13:07:05.061Z,24.21
2022-09-11T13:09:38.695Z,24.07
2022-09-11T13:12:23.919Z,24.37
2022-09-11T13:14:57.107Z,24.28
2022-09-11T13:17:30.703Z,24.22
2022-09-11T13:20:21.972Z,23.92
2022-09-11T13:22:52.740Z,24.32
2022-09-11T13:25:22.783Z,24.38
2022-09-11T13:27:54.465Z,24.54
2022-09-11T13:30:23.689Z,24.29
2022-09-11T13:33:14.583Z,24.39
2022-09-11T13:35:45.093Z,24.04
2022-09-11T13:38:19.489Z,24.09
2022-09-11T13:40:56.873Z,24.16
2022-09-11T13:43:36.014Z,24.24
2022-09-11T13:46:14.560Z,24.53
2022-09-11T13:48:43.373Z,24.53
2022-09-11T13:51:14.604Z,24.68
2022-09-11T13:53:43.315Z,24.27
2022-09-11T13:56:20.956Z,24.39
2022-09-11T13:58:52.894Z,24.60
2022-09-11T14:01:20.408Z,24.55
2022-09-11T14:03:48.959Z,24.50
2022-09-11T14:06:18.934Z,24.36
2022-09-11T14:08:53.411Z,23.89
2022-09-11T14:11:26.456Z,24.26
2022-09-11T14:13:57.305Z,24.23
2022-09-11T14:16:32.526Z,24.32
2022-09-11T14:19:09.201Z,24.16
2022-09-11T14:21:38.065Z,24.32
2022-09-11T14:24:16.754Z,24.19
2022-09-11T14:26:43.651Z,24.04
2022-09-11T14:29:33.907Z,24.21
2022-09-11T14:32:29.634Z,24.65
2022-09-11T14:34:56.370Z,24.21
2022-09-11T14:37:24.043Z,24.44
2022-09-11T14:39:59.314Z,24.87
2022-09-11T14:42:29.436Z,24.42
2022-09-11T14:44:57.661Z,24.53
2022-09-11T14:47:26.941Z,24.53
2022-09-11T14:49:55.203Z,24.60
2022-09-11T14:52:27.679Z,24.64
2022-09-11T14:54:54.832Z,24.77
2022-09-11T14:57:24.134Z,24.65
2022-09-11T14:59:51.610Z,24.87
2022-09-11T15:02:21.511Z,24.57
2022-09-11T15:04:48.895Z,24.88
2022-09-11T15:07:16.854Z,24.67
2022-09-11T15:09:43.913Z,24.92
2022-09-11T15:12:11.973Z,24.44
2022-09-11T15:14:55.706Z,24.56
2022-09-11T15:17:25.267Z,24.54
2022-09-11T15:19:52.809Z,24.79
2022-09-11T15:22:19.723Z,24.74
2022-09-11T15:24:48.161Z,24.75
2022-09-11T15:27:27.734Z,24.63
2022-09-11T15:29:55.204Z,24.78
2022-09-11T15:32:21.859Z,24.64
2022-09-11T15:34:48.702Z,24.83
2022-09-11T15:37:18.491Z,24.86
2022-09-11T15:39:45.285Z,24.58
2022-09-11T15:42:12.619Z,24.87
2022-09-11T15:44:39.573Z,24.71
2022-09-11T15:47:07.316Z,24.64
2022-09-11T15:49:39.451Z,24.54
2022-09-11T15:52:06.332Z,24.44
2022-09-11T15:54:33.063Z,24.85
2022-09-11T15:57:00.053Z,24.71
2022-09-11T15:59:27.101Z,24.79
2022-09-11T16:01:54.671Z,24.84
2022-09-11T16:04:27.262Z,24.80
2022-09-11T16:06:55.278Z,24.75
2022-09-11T16:09:25.389Z,24.83
2022-09-11T16:11:54.490Z,24.89
2022-09-11T16:14:33.323Z,24.85
2022-09-11T16:17:02.364Z,24.71
2022-09-11T16:19:30.022Z,24.61
2022-09-11T16:21:58.039Z,24.70
2022-09-11T16:24:26.161Z,24.79
2022-09-11T16:26:56.857Z,24.88
2022-09-11T16:29:25.705Z,24.54
2022-09-11T16:31:52.585Z,24.59
2022-09-11T16:34:19.366Z,24.53
2022-09-11T16:36:48.928Z,24.55
2022-09-11T16:39:19.094Z,24.33
2022-09-11T16:41:46.254Z,24.08
2022-09-11T16:44:14.964Z,24.37
2022-09-11T16:46:45.022Z,24.23
2022-09-11T16:49:17.884Z,24.26
2022-09-11T16:51:46.251Z,24.41
2022-09-11T16:54:13.329Z,24.64
2022-09-11T16:56:45.249Z,24.64
2022-09-11T16:59:12.733Z,23.86
2022-09-11T17:01:40.049Z,24.35
2022-09-11T17:04:06.827Z,24.52
2022-09-11T17:06:33.969Z,24.52
2022-09-11T17:09:01.737Z,24.54
2022-09-11T17:11:31.064Z,24.28
2022-09-11T17:13:59.914Z,24.49
2022-09-11T17:16:29.481Z,24.38
2022-09-11T17:18:56.752Z,24.15
2022-09-11T17:21:25.746Z,23.93
2022-09-11T17:23:54.749Z,24.22
2022-09-11T17:26:22.476Z,24.33
2022-09-11T17:28:50.081Z,24.33
2022-09-11T17:31:19.312Z,24.22
2022-09-11T17:33:47.094Z,24.02
2022-09-11T17:36:19.707Z,24.22
2022-09-11T17:38:48.339Z,24.28
2022-09-11T17:41:16.433Z,24.17
2022-09-11T17:43:43.638Z,24.10
2022-09-11T17:46:14.143Z,24.07
2022-09-11T17:48:41.702Z,23.93
2022-09-11T17:51:14.189Z,23.92
2022-09-11T17:53:43.087Z,23.89
2022-09-11T17:56:15.074Z,23.63
2022-09-11T17:58:45.165Z,23.77
2022-09-11T18:01:16.820Z,23.59
2022-09-11T18:03:44.303Z,23.65
2022-09-11T18:06:21.270Z,23.65
2022-09-11T18:08:48.019Z,23.63
2022-09-11T18:11:14.753Z,23.58
2022-09-11T18:13:42.980Z,23.49
2022-09-11T18:16:11.610Z,23.41
2022-09-11T18:18:41.810Z,23.45
2022-09-11T18:21:10.272Z,23.49
2022-09-11T18:23:42.505Z,23.40
2022-09-11T18:26:16.945Z,23.40
2022-09-11T18:28:44.069Z,23.39
2022-09-11T18:31:11.471Z,23.34
2022-09-11T18:33:38.133Z,23.28
2022-09-11T18:36:07.949Z,23.28
2022-09-11T18:38:35.606Z,23.24
2022-09-11T18:41:02.208Z,23.14
2022-09-11T18:43:29.708Z,23.08
2022-09-11T18:45:56.543Z,23.10
2022-09-11T18:48:23.240Z,23.09
2022-09-11T18:50:51.176Z,23.07
2022-09-11T18:53:18.112Z,23.01
2022-09-11T18:55:44.802Z,22.99
2022-09-11T18:58:11.833Z,22.91
2022-09-11T19:00:38.836Z,22.97
2022-09-11T19:03:05.704Z,22.95
2022-09-11T19:05:32.404Z,22.93
2022-09-11T19:08:01.209Z,22.87
2022-09-11T19:10:28.811Z,22.78
2022-09-11T19:12:55.557Z,22.80
2022-09-11T19:15:23.105Z,22.81
2022-09-11T19:17:50.182Z,22.75
2022-09-11T19:20:17.031Z,22.71
2022-09-11T19:22:44.327Z,22.80
2022-09-11T19:25:11.151Z,22.63
2022-09-11T19:27:38.155Z,22.72
2022-09-11T19:30:06.907Z,22.76
2022-09-11T19:32:33.631Z,22.68
2022-09-11T19:35:00.663Z,22.64
2022-09-11T19:37:28.370Z,22.61
2022-09-11T19:39:57.182Z,22.69
2022-09-11T19:42:24.184Z,22.66
2022-09-11T19:44:55.653Z,22.62
2022-09-11T19:47:25.026Z,22.51
2022-09-11T19:49:51.728Z,22.51
2022-09-11T19:52:18.607Z,22.47
2022-09-11T20:11:42.773Z,22.22
2022-09-11T20:14:09.953Z,22.30
2022-09-11T20:16:36.744Z,22.34
2022-09-11T20:19:07.085Z,22.26
2022-09-11T20:32:19.861Z,22.03
2022-09-11T20:34:46.534Z,22.01
2022-09-11T20:37:13.642Z,21.88
2022-09-11T20:39:40.421Z,21.91
2022-09-11T20:42:10.021Z,21.72
2022-09-11T20:44:37.268Z,21.59
2022-09-11T20:47:04.250Z,21.49
2022-09-11T20:49:31.234Z,21.53
2022-09-11T20:51:58.067Z,21.51
2022-09-11T20:54:24.671Z,21.37
2022-09-11T20:56:51.335Z,21.32
2022-09-11T20:59:18.042Z,21.31
2022-09-11T21:01:44.814Z,21.26
2022-09-11T21:04:11.515Z,21.20
2022-09-11T21:06:38.173Z,21.17
2022-09-11T21:09:10.972Z,21.16
2022-09-11T21:11:40.206Z,21.19
2022-09-11T21:14:07.456Z,21.10
2022-09-11T21:16:35.477Z,21.14
2022-09-11T21:19:02.647Z,21.12
2022-09-11T21:21:30.101Z,21.13
2022-09-11T21:24:06.006Z,21.10
2022-09-11T21:26:34.531Z,21.22
2022-09-11T21:29:04.175Z,21.10
2022-09-11T21:31:31.076Z,21.08
2022-09-11T21:33:58.545Z,21.09
2022-09-11T21:36:25.719Z,21.04
2022-09-11T21:38:53.402Z,21.09
2022-09-11T21:41:20.253Z,21.13
2022-09-11T21:43:47.814Z,20.96
2022-09-11T21:46:14.796Z,20.89
2022-09-11T21:48:42.222Z,20.99
2022-09-11T21:51:11.927Z,20.96
2022-09-11T21:53:39.844Z,20.91
2022-09-11T21:56:20.207Z,20.92
2022-09-11T21:58:48.666Z,20.74
2022-09-11T22:01:15.467Z,20.88
2022-09-11T22:03:42.218Z,20.91
2022-09-11T22:06:10.708Z,20.66
2022-09-11T22:08:39.805Z,20.62
2022-09-11T22:11:07.093Z,20.11
2022-09-11T22:13:35.466Z,20.26
2022-09-11T22:16:10.465Z,20.46
2022-09-11T22:18:38.357Z,19.85
2022-09-11T22:21:05.509Z,20.14
2022-09-11T22:23:32.679Z,20.02
2022-09-11T22:26:13.156Z,19.86
2022-09-11T22:28:40.409Z,20.13
2022-09-11T22:31:16.770Z,20.33
2022-09-11T22:33:43.692Z,20.40
2022-09-11T22:36:14.695Z,20.31
2022-09-11T22:38:41.421Z,20.33
2022-09-11T22:41:08.552Z,20.61
2022-09-11T22:43:35.570Z,20.84
2022-09-11T22:46:02.233Z,20.70
2022-09-11T22:48:28.989Z,20.64
2022-09-11T22:50:57.543Z,20.70
2022-09-11T22:53:25.273Z,20.86
2022-09-11T22:55:53.997Z,20.91
2022-09-11T22:58:21.299Z,20.67
2022-09-11T23:00:49.095Z,20.80
2022-09-11T23:03:15.937Z,20.78
2022-09-11T23:06:01.107Z,20.81
2022-09-11T23:08:38.394Z,20.67
2022-09-11T23:11:05.955Z,20.64
2022-09-11T23:13:33.011Z,20.57
2022-09-11T23:16:00.024Z,20.56
2022-09-11T23:18:27.938Z,20.58
2022-09-11T23:20:58.400Z,20.55
2022-09-11T23:23:28.094Z,20.39
2022-09-11T23:25:55.299Z,20.27
2022-09-11T23:28:22.614Z,20.28
2022-09-11T23:30:49.716Z,20.40
2022-09-11T23:33:16.345Z,20.41
2022-09-11T23:35:42.989Z,20.09
2022-09-11T23:38:10.293Z,19.89
2022-09-11T23:40:36.907Z,19.74
2022-09-11T23:43:03.683Z,19.40
2022-09-11T23:45:30.323Z,19.46
2022-09-11T23:47:57.002Z,19.51
2022-09-11T23:50:24.589Z,19.45
2022-09-11T23:52:51.279Z,19.54
2022-09-11T23:55:19.098Z,19.51
2022-09-11T23:57:46.318Z,19.73
